Latest  Newer  Older  Last 2 hours slideshow  Last 24 hours slideshow  Refresh every 5 minutes 
Current image  Latest image  Rain/snow radar  Cloud coverage sat images 

All time is UTC (add 2 hours to UTC in wintertime, 3 hours to UTC in DST for Latvia local time)

2021/05/09 05:50 EVRA 090550Z 18007KT 6000 BKN002 OVC005 02/02 Q1019 BECMG SCT002 OVC005
2021/05/09 05:50 EVLA 090550Z AUTO 19009KT 160V220 9999 SCT160/// BKN240/// 07/04 Q1018
2021/05/09 05:50 EVVA 090550Z AUTO 19009KT 9999 FEW014 08/06 Q1017
2021/05/09 05:50 EYKA 090550Z VRB02KT 6000 BKN002 OVC004 03/02 Q1021
2021/05/09 05:50 EYPA 090550Z 17010KT 130V190 CAVOK 08/04 Q1018
2021/05/09 05:50 EYSA 090550Z 20007KT 9999 FEW012 05/03 Q1020 BLU NOSIG
2021/05/09 05:50 EYVI 090550Z 19004KT 4000 BR MIFG NSC 03/03 Q1021 NOSIG

2021/05/09 05:50 EEKE 090550Z AUTO 22008KT 190V260 9999NDV OVC011 06/03 Q1017

2021/05/09 05:50 EETN 090550Z 20006KT CAVOK 07/02 Q1015 NOSIG
2021/05/09 05:50 EETU 090550Z 24009KT CAVOK 07/03 Q1017
   RIGA AIRPORT     EVRA               56 55N  023 58E   10   X     T          6 LV
   LIEPAJA INTL     EVLA        26406  56 31N  021 06E    4   X                8 LV
   VENTPILS         EVVA               57 21N  021 33E    6   X                8 LV
   KAUNAS           EYKA               54 54N  023 55E   77   X     T          6 LT
   PALANGA INTL     EYPA               55 55N  021 03E   10   X                6 LT
   SIAULIAI INTL    EYSA               55 54N  023 24E  135   X     T          6 LT
   VILNIUS INTL     EYVI        26730  54 38N  025 17E  197   X     T          6 LT
   KARDLA           EEKA        26116  58 59N  022 50E    4   X                8 EE
   KURESSAARE       EEKE               58 14N  022 31E    4   X                8 EE
   PARNU            EEPU               58 25N  024 28E   14   X                8 EE
   TALLINN          EETN        26038  59 24N  024 49E   40   X     T          8 EE
   TARTU            EETU               58 19N  026 41E   67   X                8 EE